sensor_id;sensor_type;location;lat;lon;timestamp;P1;durP1;ratioP1;P2;durP2;ratioP2
11877;SDS011;5998;42.676;23.268;2022-07-06T00:02:06;14.10;;;12.70;;
11877;SDS011;5998;42.676;23.268;2022-07-06T00:04:33;15.27;;;13.63;;
11877;SDS011;5998;42.676;23.268;2022-07-06T00:06:59;15.47;;;13.97;;
11877;SDS011;5998;42.676;23.268;2022-07-06T00:09:26;15.13;;;13.73;;
11877;SDS011;5998;42.676;23.268;2022-07-06T00:11:54;15.97;;;14.47;;
11877;SDS011;5998;42.676;23.268;2022-07-06T00:14:21;15.33;;;13.93;;
11877;SDS011;5998;42.676;23.268;2022-07-06T00:16:48;17.07;;;14.23;;
11877;SDS011;5998;42.676;23.268;2022-07-06T00:19:15;16.70;;;15.00;;
11877;SDS011;5998;42.676;23.268;2022-07-06T00:21:42;15.30;;;13.90;;
11877;SDS011;5998;42.676;23.268;2022-07-06T00:24:08;15.80;;;14.13;;
11877;SDS011;5998;42.676;23.268;2022-07-06T00:26:35;15.13;;;13.53;;
11877;SDS011;5998;42.676;23.268;2022-07-06T00:29:03;13.73;;;12.43;;
11877;SDS011;5998;42.676;23.268;2022-07-06T00:31:30;13.47;;;12.07;;
11877;SDS011;5998;42.676;23.268;2022-07-06T00:33:56;13.60;;;12.23;;
11877;SDS011;5998;42.676;23.268;2022-07-06T00:36:23;13.50;;;12.13;;
11877;SDS011;5998;42.676;23.268;2022-07-06T00:38:50;13.20;;;11.77;;
11877;SDS011;5998;42.676;23.268;2022-07-06T00:41:17;13.10;;;11.80;;
11877;SDS011;5998;42.676;23.268;2022-07-06T00:43:49;14.03;;;12.70;;
11877;SDS011;5998;42.676;23.268;2022-07-06T00:46:18;14.67;;;13.37;;
11877;SDS011;5998;42.676;23.268;2022-07-06T00:48:45;15.33;;;13.83;;
11877;SDS011;5998;42.676;23.268;2022-07-06T00:51:11;16.87;;;15.23;;
11877;SDS011;5998;42.676;23.268;2022-07-06T00:53:39;17.37;;;15.63;;
11877;SDS011;5998;42.676;23.268;2022-07-06T00:56:06;17.03;;;15.43;;
11877;SDS011;5998;42.676;23.268;2022-07-06T00:58:33;17.53;;;15.63;;
11877;SDS011;5998;42.676;23.268;2022-07-06T01:01:00;16.90;;;15.17;;
11877;SDS011;5998;42.676;23.268;2022-07-06T01:03:28;17.23;;;15.57;;
11877;SDS011;5998;42.676;23.268;2022-07-06T01:05:55;17.63;;;15.83;;
11877;SDS011;5998;42.676;23.268;2022-07-06T01:08:22;19.50;;;14.90;;
11877;SDS011;5998;42.676;23.268;2022-07-06T01:10:49;16.47;;;14.87;;
11877;SDS011;5998;42.676;23.268;2022-07-06T01:13:16;15.67;;;14.17;;
11877;SDS011;5998;42.676;23.268;2022-07-06T01:15:43;15.70;;;14.27;;
11877;SDS011;5998;42.676;23.268;2022-07-06T01:18:10;15.93;;;14.37;;
11877;SDS011;5998;42.676;23.268;2022-07-06T01:20:39;16.47;;;14.77;;
11877;SDS011;5998;42.676;23.268;2022-07-06T01:23:05;17.40;;;14.53;;
11877;SDS011;5998;42.676;23.268;2022-07-06T01:25:32;16.13;;;14.57;;
11877;SDS011;5998;42.676;23.268;2022-07-06T01:27:59;16.17;;;14.50;;
11877;SDS011;5998;42.676;23.268;2022-07-06T01:30:26;16.63;;;15.03;;
11877;SDS011;5998;42.676;23.268;2022-07-06T01:32:52;16.03;;;14.43;;
11877;SDS011;5998;42.676;23.268;2022-07-06T01:35:19;16.73;;;14.97;;
11877;SDS011;5998;42.676;23.268;2022-07-06T01:37:48;15.47;;;13.97;;
11877;SDS011;5998;42.676;23.268;2022-07-06T01:40:14;15.97;;;14.40;;
11877;SDS011;5998;42.676;23.268;2022-07-06T01:42:41;16.30;;;14.80;;
11877;SDS011;5998;42.676;23.268;2022-07-06T01:45:09;17.60;;;14.40;;
11877;SDS011;5998;42.676;23.268;2022-07-06T01:47:36;15.30;;;13.70;;
11877;SDS011;5998;42.676;23.268;2022-07-06T01:50:04;13.93;;;12.53;;
11877;SDS011;5998;42.676;23.268;2022-07-06T01:52:32;14.10;;;12.77;;
11877;SDS011;5998;42.676;23.268;2022-07-06T01:55:00;15.53;;;12.47;;
11877;SDS011;5998;42.676;23.268;2022-07-06T01:57:27;12.87;;;11.57;;
11877;SDS011;5998;42.676;23.268;2022-07-06T01:59:54;12.67;;;11.37;;
11877;SDS011;5998;42.676;23.268;2022-07-06T02:02:20;11.87;;;10.77;;
11877;SDS011;5998;42.676;23.268;2022-07-06T02:04:47;11.63;;;10.53;;
11877;SDS011;5998;42.676;23.268;2022-07-06T02:07:14;11.03;;;10.13;;
11877;SDS011;5998;42.676;23.268;2022-07-06T02:09:41;11.53;;;10.43;;
11877;SDS011;5998;42.676;23.268;2022-07-06T02:12:09;11.17;;;10.00;;
11877;SDS011;5998;42.676;23.268;2022-07-06T02:14:36;11.30;;;10.20;;
11877;SDS011;5998;42.676;23.268;2022-07-06T02:17:03;10.83;;;9.83;;
11877;SDS011;5998;42.676;23.268;2022-07-06T02:19:29;10.40;;;9.40;;
11877;SDS011;5998;42.676;23.268;2022-07-06T02:21:56;10.10;;;9.17;;
11877;SDS011;5998;42.676;23.268;2022-07-06T02:24:23;10.20;;;8.87;;
11877;SDS011;5998;42.676;23.268;2022-07-06T02:26:49;10.03;;;9.13;;
11877;SDS011;5998;42.676;23.268;2022-07-06T02:29:17;9.90;;;9.00;;
11877;SDS011;5998;42.676;23.268;2022-07-06T02:31:44;9.80;;;8.90;;
11877;SDS011;5998;42.676;23.268;2022-07-06T02:34:11;10.17;;;9.27;;
11877;SDS011;5998;42.676;23.268;2022-07-06T02:36:38;11.37;;;10.27;;
11877;SDS011;5998;42.676;23.268;2022-07-06T02:39:05;11.23;;;10.30;;
11877;SDS011;5998;42.676;23.268;2022-07-06T02:41:31;12.73;;;10.83;;
11877;SDS011;5998;42.676;23.268;2022-07-06T02:43:58;14.07;;;11.27;;
11877;SDS011;5998;42.676;23.268;2022-07-06T02:46:26;12.13;;;10.93;;
11877;SDS011;5998;42.676;23.268;2022-07-06T02:48:53;13.10;;;11.80;;
11877;SDS011;5998;42.676;23.268;2022-07-06T02:51:19;12.47;;;11.37;;
11877;SDS011;5998;42.676;23.268;2022-07-06T02:53:46;13.27;;;11.87;;
11877;SDS011;5998;42.676;23.268;2022-07-06T02:56:13;12.70;;;11.50;;
11877;SDS011;5998;42.676;23.268;2022-07-06T02:58:39;12.93;;;11.67;;
11877;SDS011;5998;42.676;23.268;2022-07-06T03:01:06;13.10;;;11.70;;
11877;SDS011;5998;42.676;23.268;2022-07-06T03:03:34;12.73;;;11.50;;
11877;SDS011;5998;42.676;23.268;2022-07-06T03:06:01;12.67;;;11.37;;
11877;SDS011;5998;42.676;23.268;2022-07-06T03:08:28;12.93;;;11.30;;
11877;SDS011;5998;42.676;23.268;2022-07-06T03:10:54;11.97;;;10.90;;
11877;SDS011;5998;42.676;23.268;2022-07-06T03:13:21;12.03;;;11.00;;
11877;SDS011;5998;42.676;23.268;2022-07-06T03:15:48;12.30;;;11.03;;
11877;SDS011;5998;42.676;23.268;2022-07-06T03:18:14;11.40;;;10.30;;
11877;SDS011;5998;42.676;23.268;2022-07-06T03:20:42;11.23;;;10.23;;
11877;SDS011;5998;42.676;23.268;2022-07-06T03:23:09;10.40;;;9.30;;
11877;SDS011;5998;42.676;23.268;2022-07-06T03:25:36;10.70;;;9.40;;
11877;SDS011;5998;42.676;23.268;2022-07-06T03:28:03;10.27;;;9.00;;
11877;SDS011;5998;42.676;23.268;2022-07-06T03:30:30;7.40;;;6.70;;
11877;SDS011;5998;42.676;23.268;2022-07-06T03:32:56;8.70;;;7.30;;
11877;SDS011;5998;42.676;23.268;2022-07-06T03:35:23;7.87;;;7.17;;
11877;SDS011;5998;42.676;23.268;2022-07-06T03:37:51;12.03;;;6.93;;
11877;SDS011;5998;42.676;23.268;2022-07-06T03:40:18;7.13;;;6.40;;
11877;SDS011;5998;42.676;23.268;2022-07-06T03:42:45;7.27;;;6.40;;
11877;SDS011;5998;42.676;23.268;2022-07-06T03:45:12;7.20;;;6.50;;
11877;SDS011;5998;42.676;23.268;2022-07-06T03:47:38;7.73;;;6.73;;
11877;SDS011;5998;42.676;23.268;2022-07-06T03:50:06;7.43;;;5.93;;
11877;SDS011;5998;42.676;23.268;2022-07-06T03:52:33;6.57;;;5.27;;
11877;SDS011;5998;42.676;23.268;2022-07-06T03:55:06;6.07;;;5.37;;
11877;SDS011;5998;42.676;23.268;2022-07-06T03:57:34;7.27;;;5.20;;
11877;SDS011;5998;42.676;23.268;2022-07-06T04:00:01;8.03;;;5.60;;
11877;SDS011;5998;42.676;23.268;2022-07-06T04:02:27;9.43;;;5.70;;
11877;SDS011;5998;42.676;23.268;2022-07-06T04:04:54;11.67;;;8.50;;
11877;SDS011;5998;42.676;23.268;2022-07-06T04:07:21;19.93;;;9.93;;
11877;SDS011;5998;42.676;23.268;2022-07-06T04:09:48;9.87;;;6.47;;
11877;SDS011;5998;42.676;23.268;2022-07-06T04:12:16;8.53;;;5.60;;
11877;SDS011;5998;42.676;23.268;2022-07-06T04:14:43;5.40;;;4.90;;
11877;SDS011;5998;42.676;23.268;2022-07-06T04:17:09;6.00;;;5.40;;
11877;SDS011;5998;42.676;23.268;2022-07-06T04:19:50;7.00;;;5.97;;
11877;SDS011;5998;42.676;23.268;2022-07-06T04:22:17;6.00;;;5.33;;
11877;SDS011;5998;42.676;23.268;2022-07-06T04:24:43;9.93;;;4.97;;
11877;SDS011;5998;42.676;23.268;2022-07-06T04:27:10;7.17;;;5.23;;
11877;SDS011;5998;42.676;23.268;2022-07-06T04:29:38;10.03;;;5.50;;
11877;SDS011;5998;42.676;23.268;2022-07-06T04:32:05;7.20;;;5.83;;
11877;SDS011;5998;42.676;23.268;2022-07-06T04:34:33;8.97;;;5.20;;
11877;SDS011;5998;42.676;23.268;2022-07-06T04:36:59;7.30;;;5.33;;
11877;SDS011;5998;42.676;23.268;2022-07-06T04:39:26;8.10;;;5.33;;
11877;SDS011;5998;42.676;23.268;2022-07-06T04:41:55;5.80;;;4.90;;
11877;SDS011;5998;42.676;23.268;2022-07-06T04:44:22;10.90;;;5.53;;
11877;SDS011;5998;42.676;23.268;2022-07-06T04:46:50;6.93;;;6.33;;
11877;SDS011;5998;42.676;23.268;2022-07-06T04:49:17;8.70;;;7.60;;
11877;SDS011;5998;42.676;23.268;2022-07-06T04:51:44;10.63;;;8.80;;
11877;SDS011;5998;42.676;23.268;2022-07-06T04:54:10;9.60;;;8.27;;
11877;SDS011;5998;42.676;23.268;2022-07-06T04:56:37;10.00;;;8.90;;
11877;SDS011;5998;42.676;23.268;2022-07-06T04:59:04;11.07;;;9.73;;
11877;SDS011;5998;42.676;23.268;2022-07-06T05:01:31;11.63;;;9.93;;
11877;SDS011;5998;42.676;23.268;2022-07-06T05:03:59;11.97;;;10.67;;
11877;SDS011;5998;42.676;23.268;2022-07-06T05:06:26;13.47;;;10.40;;
11877;SDS011;5998;42.676;23.268;2022-07-06T05:08:52;11.93;;;10.07;;
11877;SDS011;5998;42.676;23.268;2022-07-06T05:11:19;13.00;;;10.77;;
11877;SDS011;5998;42.676;23.268;2022-07-06T05:13:46;13.13;;;11.73;;
11877;SDS011;5998;42.676;23.268;2022-07-06T05:16:13;13.87;;;12.23;;
11877;SDS011;5998;42.676;23.268;2022-07-06T05:18:40;13.63;;;11.50;;
11877;SDS011;5998;42.676;23.268;2022-07-06T05:21:08;11.90;;;10.10;;
11877;SDS011;5998;42.676;23.268;2022-07-06T05:23:35;11.60;;;10.40;;
11877;SDS011;5998;42.676;23.268;2022-07-06T05:26:01;11.43;;;9.77;;
11877;SDS011;5998;42.676;23.268;2022-07-06T05:28:28;12.33;;;10.00;;
11877;SDS011;5998;42.676;23.268;2022-07-06T05:30:55;11.10;;;10.00;;
11877;SDS011;5998;42.676;23.268;2022-07-06T05:33:23;12.50;;;8.93;;
11877;SDS011;5998;42.676;23.268;2022-07-06T05:35:50;8.90;;;7.97;;
11877;SDS011;5998;42.676;23.268;2022-07-06T05:38:18;10.50;;;8.33;;
11877;SDS011;5998;42.676;23.268;2022-07-06T05:40:45;12.23;;;8.77;;
11877;SDS011;5998;42.676;23.268;2022-07-06T05:43:12;9.80;;;8.73;;
11877;SDS011;5998;42.676;23.268;2022-07-06T05:45:39;10.03;;;8.53;;
11877;SDS011;5998;42.676;23.268;2022-07-06T05:48:06;13.07;;;8.47;;
11877;SDS011;5998;42.676;23.268;2022-07-06T05:50:50;10.93;;;8.87;;
11877;SDS011;5998;42.676;23.268;2022-07-06T05:53:18;10.27;;;8.73;;
11877;SDS011;5998;42.676;23.268;2022-07-06T05:55:45;11.47;;;8.77;;
11877;SDS011;5998;42.676;23.268;2022-07-06T05:58:11;10.43;;;8.50;;
11877;SDS011;5998;42.676;23.268;2022-07-06T06:00:38;10.60;;;8.40;;
11877;SDS011;5998;42.676;23.268;2022-07-06T06:03:05;9.33;;;8.33;;
11877;SDS011;5998;42.676;23.268;2022-07-06T06:05:32;9.50;;;8.10;;
11877;SDS011;5998;42.676;23.268;2022-07-06T06:07:59;10.50;;;8.20;;
11877;SDS011;5998;42.676;23.268;2022-07-06T06:10:27;12.40;;;8.57;;
11877;SDS011;5998;42.676;23.268;2022-07-06T06:12:54;9.10;;;8.10;;
11877;SDS011;5998;42.676;23.268;2022-07-06T06:15:20;10.53;;;8.70;;
11877;SDS011;5998;42.676;23.268;2022-07-06T06:17:47;9.40;;;8.17;;
11877;SDS011;5998;42.676;23.268;2022-07-06T06:20:14;9.70;;;8.70;;
11877;SDS011;5998;42.676;23.268;2022-07-06T06:22:45;10.90;;;9.57;;
11877;SDS011;5998;42.676;23.268;2022-07-06T06:25:13;9.63;;;8.73;;
11877;SDS011;5998;42.676;23.268;2022-07-06T06:27:41;9.40;;;8.40;;
11877;SDS011;5998;42.676;23.268;2022-07-06T06:30:08;11.60;;;9.17;;
11877;SDS011;5998;42.676;23.268;2022-07-06T06:32:35;11.77;;;9.70;;
11877;SDS011;5998;42.676;23.268;2022-07-06T06:35:02;11.77;;;10.33;;
11877;SDS011;5998;42.676;23.268;2022-07-06T06:37:29;12.00;;;9.90;;
11877;SDS011;5998;42.676;23.268;2022-07-06T06:39:56;13.60;;;11.20;;
11877;SDS011;5998;42.676;23.268;2022-07-06T06:42:23;15.17;;;11.07;;
11877;SDS011;5998;42.676;23.268;2022-07-06T06:44:51;12.40;;;11.20;;
11877;SDS011;5998;42.676;23.268;2022-07-06T06:47:18;13.53;;;11.37;;
11877;SDS011;5998;42.676;23.268;2022-07-06T06:49:45;11.70;;;10.60;;
11877;SDS011;5998;42.676;23.268;2022-07-06T06:52:12;11.57;;;10.47;;
11877;SDS011;5998;42.676;23.268;2022-07-06T06:54:39;14.00;;;11.00;;
11877;SDS011;5998;42.676;23.268;2022-07-06T06:57:06;13.60;;;11.70;;
11877;SDS011;5998;42.676;23.268;2022-07-06T06:59:33;12.03;;;10.83;;
11877;SDS011;5998;42.676;23.268;2022-07-06T07:02:01;12.10;;;10.90;;
11877;SDS011;5998;42.676;23.268;2022-07-06T07:04:28;14.53;;;12.00;;
11877;SDS011;5998;42.676;23.268;2022-07-06T07:06:55;13.57;;;12.30;;
11877;SDS011;5998;42.676;23.268;2022-07-06T07:09:22;13.70;;;12.23;;
11877;SDS011;5998;42.676;23.268;2022-07-06T07:11:49;12.90;;;11.60;;
11877;SDS011;5998;42.676;23.268;2022-07-06T07:14:16;13.40;;;12.00;;
11877;SDS011;5998;42.676;23.268;2022-07-06T07:16:42;16.40;;;12.70;;
11877;SDS011;5998;42.676;23.268;2022-07-06T07:19:25;15.57;;;13.70;;
11877;SDS011;5998;42.676;23.268;2022-07-06T07:21:51;15.03;;;13.53;;
11877;SDS011;5998;42.676;23.268;2022-07-06T07:24:18;15.17;;;13.43;;
11877;SDS011;5998;42.676;23.268;2022-07-06T07:26:45;13.43;;;12.23;;
11877;SDS011;5998;42.676;23.268;2022-07-06T07:29:11;13.73;;;11.73;;
11877;SDS011;5998;42.676;23.268;2022-07-06T07:31:38;16.03;;;12.67;;
11877;SDS011;5998;42.676;23.268;2022-07-06T07:34:05;14.83;;;12.73;;
11877;SDS011;5998;42.676;23.268;2022-07-06T07:36:33;15.33;;;13.23;;
11877;SDS011;5998;42.676;23.268;2022-07-06T07:39:00;16.00;;;11.53;;
11877;SDS011;5998;42.676;23.268;2022-07-06T07:41:27;15.07;;;13.40;;
11877;SDS011;5998;42.676;23.268;2022-07-06T07:43:54;14.50;;;13.10;;
11877;SDS011;5998;42.676;23.268;2022-07-06T07:46:21;13.27;;;11.93;;
11877;SDS011;5998;42.676;23.268;2022-07-06T07:48:47;14.37;;;12.93;;
11877;SDS011;5998;42.676;23.268;2022-07-06T07:51:14;13.63;;;12.30;;
11877;SDS011;5998;42.676;23.268;2022-07-06T07:53:42;16.00;;;12.20;;
11877;SDS011;5998;42.676;23.268;2022-07-06T07:56:09;13.97;;;12.60;;
11877;SDS011;5998;42.676;23.268;2022-07-06T07:58:36;14.07;;;12.77;;
11877;SDS011;5998;42.676;23.268;2022-07-06T08:01:03;14.90;;;13.17;;
11877;SDS011;5998;42.676;23.268;2022-07-06T08:03:30;16.07;;;12.50;;
11877;SDS011;5998;42.676;23.268;2022-07-06T08:05:57;12.07;;;11.07;;
11877;SDS011;5998;42.676;23.268;2022-07-06T08:08:24;12.27;;;11.07;;
11877;SDS011;5998;42.676;23.268;2022-07-06T08:10:52;12.87;;;11.57;;
11877;SDS011;5998;42.676;23.268;2022-07-06T08:13:19;11.40;;;10.40;;
11877;SDS011;5998;42.676;23.268;2022-07-06T08:15:45;12.33;;;11.23;;
11877;SDS011;5998;42.676;23.268;2022-07-06T08:18:12;12.10;;;11.00;;
11877;SDS011;5998;42.676;23.268;2022-07-06T08:20:39;12.03;;;10.67;;
11877;SDS011;5998;42.676;23.268;2022-07-06T08:23:06;12.30;;;11.10;;
11877;SDS011;5998;42.676;23.268;2022-07-06T08:25:32;12.40;;;11.37;;
11877;SDS011;5998;42.676;23.268;2022-07-06T08:28:00;13.30;;;11.57;;
11877;SDS011;5998;42.676;23.268;2022-07-06T08:30:27;13.47;;;10.77;;
11877;SDS011;5998;42.676;23.268;2022-07-06T08:32:56;10.67;;;9.60;;
11877;SDS011;5998;42.676;23.268;2022-07-06T08:35:23;12.03;;;10.77;;
11877;SDS011;5998;42.676;23.268;2022-07-06T08:37:49;12.57;;;11.30;;
11877;SDS011;5998;42.676;23.268;2022-07-06T08:40:16;12.97;;;11.77;;
11877;SDS011;5998;42.676;23.268;2022-07-06T08:42:43;15.97;;;11.57;;
11877;SDS011;5998;42.676;23.268;2022-07-06T08:45:13;13.33;;;12.03;;
11877;SDS011;5998;42.676;23.268;2022-07-06T08:47:40;12.30;;;11.13;;
11877;SDS011;5998;42.676;23.268;2022-07-06T08:50:08;13.90;;;11.73;;
11877;SDS011;5998;42.676;23.268;2022-07-06T08:52:36;12.60;;;11.40;;
11877;SDS011;5998;42.676;23.268;2022-07-06T08:55:04;12.90;;;11.63;;
11877;SDS011;5998;42.676;23.268;2022-07-06T08:57:32;11.50;;;10.50;;
11877;SDS011;5998;42.676;23.268;2022-07-06T08:59:59;10.73;;;9.83;;
11877;SDS011;5998;42.676;23.268;2022-07-06T09:02:27;13.53;;;10.97;;
11877;SDS011;5998;42.676;23.268;2022-07-06T09:04:55;11.40;;;10.23;;
11877;SDS011;5998;42.676;23.268;2022-07-06T09:07:23;12.60;;;10.50;;
11877;SDS011;5998;42.676;23.268;2022-07-06T09:09:53;11.60;;;10.43;;
11877;SDS011;5998;42.676;23.268;2022-07-06T09:12:21;12.10;;;10.90;;
11877;SDS011;5998;42.676;23.268;2022-07-06T09:14:48;11.90;;;10.73;;
11877;SDS011;5998;42.676;23.268;2022-07-06T09:17:15;11.50;;;10.40;;
11877;SDS011;5998;42.676;23.268;2022-07-06T09:19:44;12.13;;;11.00;;
11877;SDS011;5998;42.676;23.268;2022-07-06T09:22:24;11.73;;;10.83;;
11877;SDS011;5998;42.676;23.268;2022-07-06T09:24:51;11.57;;;10.47;;
11877;SDS011;5998;42.676;23.268;2022-07-06T09:27:18;12.27;;;11.13;;
11877;SDS011;5998;42.676;23.268;2022-07-06T09:29:45;12.20;;;11.20;;
11877;SDS011;5998;42.676;23.268;2022-07-06T09:32:12;11.87;;;10.53;;
11877;SDS011;5998;42.676;23.268;2022-07-06T09:34:47;11.47;;;10.37;;
11877;SDS011;5998;42.676;23.268;2022-07-06T09:37:14;11.87;;;10.87;;
11877;SDS011;5998;42.676;23.268;2022-07-06T09:39:41;16.87;;;12.83;;
11877;SDS011;5998;42.676;23.268;2022-07-06T09:42:10;13.27;;;12.07;;
11877;SDS011;5998;42.676;23.268;2022-07-06T09:44:37;14.77;;;12.00;;
11877;SDS011;5998;42.676;23.268;2022-07-06T09:47:06;13.90;;;12.67;;
11877;SDS011;5998;42.676;23.268;2022-07-06T09:49:34;13.80;;;12.60;;
11877;SDS011;5998;42.676;23.268;2022-07-06T09:52:04;14.73;;;13.40;;
11877;SDS011;5998;42.676;23.268;2022-07-06T09:54:32;14.90;;;13.43;;
11877;SDS011;5998;42.676;23.268;2022-07-06T09:57:00;14.93;;;13.57;;
11877;SDS011;5998;42.676;23.268;2022-07-06T09:59:28;13.43;;;12.33;;
11877;SDS011;5998;42.676;23.268;2022-07-06T10:01:57;14.70;;;13.30;;
11877;SDS011;5998;42.676;23.268;2022-07-06T10:04:26;14.23;;;12.73;;
11877;SDS011;5998;42.676;23.268;2022-07-06T10:06:53;15.87;;;14.23;;
11877;SDS011;5998;42.676;23.268;2022-07-06T10:09:23;16.07;;;14.37;;
11877;SDS011;5998;42.676;23.268;2022-07-06T10:11:52;14.67;;;13.37;;
11877;SDS011;5998;42.676;23.268;2022-07-06T10:14:21;14.73;;;13.33;;
11877;SDS011;5998;42.676;23.268;2022-07-06T10:16:49;14.10;;;12.70;;
11877;SDS011;5998;42.676;23.268;2022-07-06T10:19:18;14.10;;;12.70;;
11877;SDS011;5998;42.676;23.268;2022-07-06T10:21:46;13.90;;;12.60;;
11877;SDS011;5998;42.676;23.268;2022-07-06T10:24:14;14.60;;;13.30;;
11877;SDS011;5998;42.676;23.268;2022-07-06T10:26:43;13.97;;;12.77;;
11877;SDS011;5998;42.676;23.268;2022-07-06T10:29:10;15.50;;;13.87;;
11877;SDS011;5998;42.676;23.268;2022-07-06T10:31:38;13.77;;;12.37;;
11877;SDS011;5998;42.676;23.268;2022-07-06T10:34:07;14.53;;;13.30;;
11877;SDS011;5998;42.676;23.268;2022-07-06T10:36:38;13.37;;;12.13;;
11877;SDS011;5998;42.676;23.268;2022-07-06T10:39:05;12.23;;;11.00;;
11877;SDS011;5998;42.676;23.268;2022-07-06T10:41:47;13.10;;;11.87;;
11877;SDS011;5998;42.676;23.268;2022-07-06T10:44:15;12.03;;;11.03;;
11877;SDS011;5998;42.676;23.268;2022-07-06T10:46:49;12.37;;;11.27;;
11877;SDS011;5998;42.676;23.268;2022-07-06T10:49:17;13.93;;;12.63;;
11877;SDS011;5998;42.676;23.268;2022-07-06T10:51:44;13.23;;;11.93;;
11877;SDS011;5998;42.676;23.268;2022-07-06T10:54:12;12.73;;;11.63;;
11877;SDS011;5998;42.676;23.268;2022-07-06T10:56:40;12.93;;;11.70;;
11877;SDS011;5998;42.676;23.268;2022-07-06T10:59:11;18.03;;;15.03;;
11877;SDS011;5998;42.676;23.268;2022-07-06T11:01:39;17.80;;;12.17;;
11877;SDS011;5998;42.676;23.268;2022-07-06T11:04:08;11.53;;;10.53;;
11877;SDS011;5998;42.676;23.268;2022-07-06T11:06:36;12.53;;;11.33;;
11877;SDS011;5998;42.676;23.268;2022-07-06T11:09:04;14.03;;;12.93;;
11877;SDS011;5998;42.676;23.268;2022-07-06T11:11:39;14.83;;;13.53;;
11877;SDS011;5998;42.676;23.268;2022-07-06T11:14:09;16.57;;;14.63;;
11877;SDS011;5998;42.676;23.268;2022-07-06T11:16:39;15.27;;;13.90;;
11877;SDS011;5998;42.676;23.268;2022-07-06T11:19:26;13.67;;;12.33;;
11877;SDS011;5998;42.676;23.268;2022-07-06T11:21:54;14.97;;;13.67;;
11877;SDS011;5998;42.676;23.268;2022-07-06T11:24:23;13.60;;;12.50;;
11877;SDS011;5998;42.676;23.268;2022-07-06T11:26:51;13.80;;;12.60;;
11877;SDS011;5998;42.676;23.268;2022-07-06T11:29:21;14.10;;;12.80;;
11877;SDS011;5998;42.676;23.268;2022-07-06T11:31:50;14.13;;;12.93;;
11877;SDS011;5998;42.676;23.268;2022-07-06T11:34:19;15.27;;;13.97;;
11877;SDS011;5998;42.676;23.268;2022-07-06T11:36:46;14.50;;;13.30;;
11877;SDS011;5998;42.676;23.268;2022-07-06T11:39:14;13.53;;;12.20;;
11877;SDS011;5998;42.676;23.268;2022-07-06T11:41:41;14.40;;;13.10;;
11877;SDS011;5998;42.676;23.268;2022-07-06T11:44:08;15.07;;;13.63;;
11877;SDS011;5998;42.676;23.268;2022-07-06T11:46:36;14.00;;;12.60;;
11877;SDS011;5998;42.676;23.268;2022-07-06T11:49:04;12.87;;;11.90;;
11877;SDS011;5998;42.676;23.268;2022-07-06T11:51:32;13.20;;;12.13;;
11877;SDS011;5998;42.676;23.268;2022-07-06T11:54:01;13.97;;;12.63;;
11877;SDS011;5998;42.676;23.268;2022-07-06T11:56:34;13.73;;;12.53;;
11877;SDS011;5998;42.676;23.268;2022-07-06T11:59:01;13.77;;;12.47;;
11877;SDS011;5998;42.676;23.268;2022-07-06T12:01:29;13.63;;;12.60;;
11877;SDS011;5998;42.676;23.268;2022-07-06T12:03:59;13.37;;;12.37;;
11877;SDS011;5998;42.676;23.268;2022-07-06T12:06:27;14.30;;;13.00;;
11877;SDS011;5998;42.676;23.268;2022-07-06T12:08:55;13.47;;;12.30;;
11877;SDS011;5998;42.676;23.268;2022-07-06T12:11:25;12.27;;;11.27;;
11877;SDS011;5998;42.676;23.268;2022-07-06T12:13:53;13.33;;;11.93;;
11877;SDS011;5998;42.676;23.268;2022-07-06T12:16:21;12.47;;;11.47;;
11877;SDS011;5998;42.676;23.268;2022-07-06T12:18:54;12.33;;;11.00;;
11877;SDS011;5998;42.676;23.268;2022-07-06T12:21:22;11.20;;;10.20;;
11877;SDS011;5998;42.676;23.268;2022-07-06T12:23:50;12.47;;;9.30;;
11877;SDS011;5998;42.676;23.268;2022-07-06T12:26:19;9.73;;;8.93;;
11877;SDS011;5998;42.676;23.268;2022-07-06T12:28:58;9.23;;;8.33;;
11877;SDS011;5998;42.676;23.268;2022-07-06T12:31:32;8.70;;;8.00;;
11877;SDS011;5998;42.676;23.268;2022-07-06T12:34:00;9.93;;;9.03;;
11877;SDS011;5998;42.676;23.268;2022-07-06T12:36:29;10.03;;;9.23;;
11877;SDS011;5998;42.676;23.268;2022-07-06T12:38:55;9.73;;;8.83;;
11877;SDS011;5998;42.676;23.268;2022-07-06T12:41:26;9.43;;;8.63;;
11877;SDS011;5998;42.676;23.268;2022-07-06T12:44:00;8.70;;;7.90;;
11877;SDS011;5998;42.676;23.268;2022-07-06T12:46:31;7.80;;;7.20;;
11877;SDS011;5998;42.676;23.268;2022-07-06T12:49:00;8.80;;;8.10;;
11877;SDS011;5998;42.676;23.268;2022-07-06T12:51:40;9.77;;;8.17;;
11877;SDS011;5998;42.676;23.268;2022-07-06T12:54:15;8.40;;;7.73;;
11877;SDS011;5998;42.676;23.268;2022-07-06T12:56:55;8.23;;;7.53;;
11877;SDS011;5998;42.676;23.268;2022-07-06T12:59:34;9.27;;;7.27;;
11877;SDS011;5998;42.676;23.268;2022-07-06T13:02:03;8.40;;;7.10;;
11877;SDS011;5998;42.676;23.268;2022-07-06T13:04:30;7.00;;;6.40;;
11877;SDS011;5998;42.676;23.268;2022-07-06T13:07:00;5.73;;;5.27;;
11877;SDS011;5998;42.676;23.268;2022-07-06T13:09:27;6.17;;;5.67;;
11877;SDS011;5998;42.676;23.268;2022-07-06T13:11:55;5.90;;;5.43;;
11877;SDS011;5998;42.676;23.268;2022-07-06T13:14:22;6.13;;;5.57;;
11877;SDS011;5998;42.676;23.268;2022-07-06T13:16:49;6.50;;;5.80;;
11877;SDS011;5998;42.676;23.268;2022-07-06T13:19:16;5.40;;;5.00;;
11877;SDS011;5998;42.676;23.268;2022-07-06T13:21:42;7.93;;;5.27;;
11877;SDS011;5998;42.676;23.268;2022-07-06T13:24:12;5.53;;;4.70;;
11877;SDS011;5998;42.676;23.268;2022-07-06T13:26:39;5.37;;;4.87;;
11877;SDS011;5998;42.676;23.268;2022-07-06T13:29:06;4.57;;;4.10;;
11877;SDS011;5998;42.676;23.268;2022-07-06T13:31:35;4.87;;;4.43;;
11877;SDS011;5998;42.676;23.268;2022-07-06T13:34:03;4.80;;;4.40;;
11877;SDS011;5998;42.676;23.268;2022-07-06T13:36:30;4.83;;;4.43;;
11877;SDS011;5998;42.676;23.268;2022-07-06T13:38:57;7.03;;;4.23;;
11877;SDS011;5998;42.676;23.268;2022-07-06T13:41:25;4.20;;;3.80;;
11877;SDS011;5998;42.676;23.268;2022-07-06T13:43:52;5.07;;;3.50;;
11877;SDS011;5998;42.676;23.268;2022-07-06T13:46:19;4.33;;;3.17;;
11877;SDS011;5998;42.676;23.268;2022-07-06T13:48:46;4.13;;;2.70;;
11877;SDS011;5998;42.676;23.268;2022-07-06T13:51:13;6.70;;;3.03;;
11877;SDS011;5998;42.676;23.268;2022-07-06T13:53:40;5.20;;;3.00;;
11877;SDS011;5998;42.676;23.268;2022-07-06T13:56:07;3.33;;;2.77;;
11877;SDS011;5998;42.676;23.268;2022-07-06T13:58:35;6.53;;;2.90;;
11877;SDS011;5998;42.676;23.268;2022-07-06T14:01:02;3.27;;;3.07;;
11877;SDS011;5998;42.676;23.268;2022-07-06T14:03:29;3.30;;;2.80;;
11877;SDS011;5998;42.676;23.268;2022-07-06T14:05:57;2.90;;;2.70;;
11877;SDS011;5998;42.676;23.268;2022-07-06T14:08:24;2.87;;;2.67;;
11877;SDS011;5998;42.676;23.268;2022-07-06T14:10:52;3.23;;;2.53;;
11877;SDS011;5998;42.676;23.268;2022-07-06T14:13:19;6.70;;;2.73;;
11877;SDS011;5998;42.676;23.268;2022-07-06T14:15:48;2.97;;;2.67;;
11877;SDS011;5998;42.676;23.268;2022-07-06T14:18:15;2.63;;;2.50;;
11877;SDS011;5998;42.676;23.268;2022-07-06T14:20:43;3.23;;;2.67;;
11877;SDS011;5998;42.676;23.268;2022-07-06T14:23:10;2.90;;;2.70;;
11877;SDS011;5998;42.676;23.268;2022-07-06T14:25:37;7.57;;;2.80;;
11877;SDS011;5998;42.676;23.268;2022-07-06T14:28:04;3.50;;;3.20;;
11877;SDS011;5998;42.676;23.268;2022-07-06T14:30:32;3.13;;;2.83;;
11877;SDS011;5998;42.676;23.268;2022-07-06T14:33:03;3.50;;;2.93;;
11877;SDS011;5998;42.676;23.268;2022-07-06T14:35:32;3.30;;;2.70;;